Time;durP1;ratioP1;P1;durP2;ratioP2;P2;SDS_P1;SDS_P2;PMS_P1;PMS_P2;Temp;Humidity;BMP_temperature;BMP_pressure;BME280_temperature;BME280_humidity;BME280_pressure;Samples;Min_cycle;Max_cycle;Signal;HPM_P1;HPM_P2
2021/03/19 00:02:56;;;;;;;44.00;22.40;;;;;;;-0.48;79.28;98670.62;258949;1108;23027;-76
2021/03/19 00:07:59;;;;;;;38.90;20.17;;;;;;;-0.56;78.90;98663.02;259183;1108;23087;-76
2021/03/19 00:13:07;;;;;;;36.43;19.20;;;;;;;-0.62;79.12;98662.06;258948;1109;23030;-76
2021/03/19 00:18:09;;;;;;;45.63;21.77;;;;;;;-0.62;79.07;98658.64;258980;1109;23455;-76
2021/03/19 00:23:13;;;;;;;38.37;20.50;;;;;;;-0.61;79.30;98662.88;259048;1108;23067;-76
2021/03/19 00:28:15;;;;;;;44.60;22.17;;;;;;;-0.59;79.27;98656.39;259124;1108;23056;-77
2021/03/19 00:33:17;;;;;;;43.63;23.07;;;;;;;-0.64;79.34;98652.77;259041;1109;23076;-76
2021/03/19 00:38:20;;;;;;;51.97;23.23;;;;;;;-0.70;78.61;98655.27;259077;1108;23027;-76
2021/03/19 00:43:23;;;;;;;36.70;19.30;;;;;;;-0.68;79.68;98649.00;259252;1107;23034;-77
2021/03/19 00:48:26;;;;;;;45.80;21.67;;;;;;;-0.68;79.15;98647.16;259171;1108;23064;-76
2021/03/19 00:53:29;;;;;;;40.43;19.40;;;;;;;-0.76;79.04;98642.97;259103;1108;23030;-76
2021/03/19 00:58:32;;;;;;;40.43;19.73;;;;;;;-0.90;78.41;98641.50;258977;1108;23182;-77
2021/03/19 01:03:35;;;;;;;42.90;21.23;;;;;;;-0.97;78.98;98638.13;259395;1109;23046;-76
2021/03/19 01:08:37;;;;;;;37.17;18.60;;;;;;;-1.10;79.02;98644.31;259072;1109;23009;-76
2021/03/19 01:13:39;;;;;;;44.43;21.47;;;;;;;-1.11;79.36;98647.95;258990;1108;22983;-76
2021/03/19 01:18:42;;;;;;;43.50;21.50;;;;;;;-1.07;79.02;98638.63;258959;1108;23014;-77
2021/03/19 01:23:49;;;;;;;42.83;20.07;;;;;;;-1.01;79.24;98648.27;259031;1108;23017;-77
2021/03/19 01:28:52;;;;;;;33.70;17.00;;;;;;;-1.02;78.72;98633.53;259143;1108;24594;-76
2021/03/19 01:33:59;;;;;;;39.70;20.23;;;;;;;-1.04;78.99;98641.61;259167;1109;23017;-76
2021/03/19 01:39:02;;;;;;;41.17;20.33;;;;;;;-1.02;78.97;98635.33;259113;1108;23231;-76
2021/03/19 01:44:04;;;;;;;51.37;22.83;;;;;;;-1.01;79.44;98637.74;258940;1109;23128;-76
2021/03/19 01:49:45;;;;;;;42.47;19.07;;;;;;;-1.00;79.05;98647.25;259165;1108;23124;-76
2021/03/19 01:55:25;;;;;;;43.93;19.87;;;;;;;-1.05;79.07;98647.91;258948;1109;23233;-76
2021/03/19 02:01:05;;;;;;;41.60;20.62;;;;;;;-1.04;79.19;98636.34;258892;1108;23498;-75
2021/03/19 02:06:45;;;;;;;34.63;16.50;;;;;;;-1.06;79.14;98642.87;258993;1109;23020;-76
2021/03/19 02:12:25;;;;;;;41.50;19.35;;;;;;;-1.08;79.45;98639.63;259083;1108;22987;-76
2021/03/19 02:18:05;;;;;;;40.05;19.77;;;;;;;-1.02;79.37;98636.16;259008;1107;23226;-75
2021/03/19 02:23:45;;;;;;;40.52;18.37;;;;;;;-1.10;78.69;98634.59;258987;1107;23070;-76
2021/03/19 02:29:25;;;;;;;25.35;13.35;;;;;;;-1.18;79.03;98624.34;259017;1108;23348;-76
2021/03/19 02:34:32;;;;;;;38.83;17.37;;;;;;;-1.28;78.85;98622.20;258882;1109;23298;-76
2021/03/19 02:39:35;;;;;;;37.87;17.83;;;;;;;-1.32;79.16;98610.50;259035;1108;27614;-75
2021/03/19 02:44:37;;;;;;;39.53;19.87;;;;;;;-1.26;79.29;98614.09;258998;1109;23023;-76
2021/03/19 02:49:40;;;;;;;42.83;18.83;;;;;;;-1.21;79.46;98617.69;258887;1109;23046;-77
2021/03/19 02:54:52;;;;;;;36.20;17.37;;;;;;;-1.15;78.89;98625.74;258674;1108;23083;-76
2021/03/19 02:59:54;;;;;;;35.37;18.20;;;;;;;-1.13;79.51;98624.52;259026;1108;23187;-76
2021/03/19 03:04:57;;;;;;;46.87;20.37;;;;;;;-1.07;79.72;98635.98;258838;1108;23006;-76
2021/03/19 03:10:00;;;;;;;41.97;18.10;;;;;;;-1.06;79.91;98629.72;259011;1108;23080;-76
2021/03/19 03:15:07;;;;;;;41.70;18.40;;;;;;;-1.03;79.09;98645.06;259188;1108;23074;-77
2021/03/19 03:20:18;;;;;;;37.07;18.20;;;;;;;-1.11;79.44;98642.70;258989;1109;27691;-76
2021/03/19 03:25:22;;;;;;;36.77;16.13;;;;;;;-1.16;79.89;98639.90;259122;1108;25966;-76
2021/03/19 03:30:33;;;;;;;35.33;16.23;;;;;;;-1.31;79.27;98635.78;259330;1109;23184;-75
2021/03/19 03:35:37;;;;;;;38.77;17.73;;;;;;;-1.48;78.62;98629.42;258809;1108;23190;-76
2021/03/19 03:40:48;;;;;;;38.27;17.77;;;;;;;-1.56;79.54;98630.50;259009;1107;23091;-77
2021/03/19 03:45:50;;;;;;;33.00;14.47;;;;;;;-1.51;79.77;98635.11;258942;1109;26559;-75
2021/03/19 03:50:53;;;;;;;26.93;13.60;;;;;;;-1.58;79.01;98622.84;258909;1108;23026;-76
2021/03/19 03:55:55;;;;;;;27.40;13.67;;;;;;;-1.60;79.85;98627.48;258959;1108;23018;-74
2021/03/19 04:00:58;;;;;;;34.47;15.77;;;;;;;-1.53;79.82;98635.33;259196;1108;23079;-77
2021/03/19 04:06:01;;;;;;;34.27;17.20;;;;;;;-1.43;80.16;98625.17;259026;1107;23005;-76
2021/03/19 04:11:06;;;;;;;33.80;15.97;;;;;;;-1.32;79.61;98628.11;259046;1108;23074;-76
2021/03/19 04:16:09;;;;;;;33.47;14.47;;;;;;;-1.33;79.33;98634.38;258994;1109;23151;-76
2021/03/19 04:21:13;;;;;;;31.97;14.07;;;;;;;-1.42;79.61;98632.01;259139;1105;23033;-76
2021/03/19 04:26:31;;;;;;;30.10;14.50;;;;;;;-1.48;79.72;98632.05;259317;1109;23030;-76
2021/03/19 04:31:35;;;;;;;32.63;14.03;;;;;;;-1.48;80.03;98645.19;259007;1109;23083;-77
2021/03/19 04:36:48;;;;;;;30.70;13.97;;;;;;;-1.49;79.60;98633.88;258971;1109;23075;-77
2021/03/19 04:41:54;;;;;;;35.40;16.37;;;;;;;-1.59;79.35;98638.81;259138;1108;23143;-76
2021/03/19 04:46:56;;;;;;;34.77;16.00;;;;;;;-1.70;79.83;98635.03;259250;1108;23350;-77
2021/03/19 04:52:00;;;;;;;28.03;14.03;;;;;;;-1.73;79.46;98635.47;259172;1108;26631;-76
2021/03/19 04:57:02;;;;;;;33.40;14.40;;;;;;;-1.68;79.47;98637.45;259377;1108;26472;-76
2021/03/19 05:02:04;;;;;;;33.80;15.60;;;;;;;-1.68;80.01;98635.61;259129;1109;23012;-77
2021/03/19 05:07:09;;;;;;;32.87;15.87;;;;;;;-1.67;79.71;98644.31;258933;1109;23479;-77
2021/03/19 05:12:11;;;;;;;31.77;15.57;;;;;;;-1.61;80.23;98649.54;258904;1107;23066;-76
2021/03/19 05:17:15;;;;;;;36.27;15.53;;;;;;;-1.53;80.19;98653.72;259030;1108;23076;-76
2021/03/19 05:22:18;;;;;;;37.90;17.80;;;;;;;-1.50;79.85;98649.86;259071;1108;23202;-76
2021/03/19 05:27:21;;;;;;;42.13;17.83;;;;;;;-1.46;80.20;98664.98;259062;1108;23506;-76
2021/03/19 05:32:25;;;;;;;42.40;18.90;;;;;;;-1.39;79.43;98667.57;259140;1108;23052;-77
2021/03/19 05:37:28;;;;;;;30.00;15.97;;;;;;;-1.35;79.82;98663.50;259165;1109;23043;-77
2021/03/19 05:42:34;;;;;;;34.80;16.80;;;;;;;-1.28;79.84;98671.34;259067;1109;23229;-76
2021/03/19 05:47:37;;;;;;;33.87;16.37;;;;;;;-1.31;79.04;98674.41;259190;1109;23069;-76
2021/03/19 05:52:40;;;;;;;24.10;11.87;;;;;;;-1.25;79.05;98679.59;259024;1109;23002;-76
2021/03/19 05:57:45;;;;;;;30.35;14.65;;;;;;;-1.23;79.27;98684.66;259087;1108;25973;-76
2021/03/19 06:02:48;;;;;;;30.00;13.77;;;;;;;-1.14;79.66;98683.36;259275;1108;23202;-77
2021/03/19 06:07:52;;;;;;;37.87;17.00;;;;;;;-1.06;79.45;98695.45;258919;1109;22999;-75
2021/03/19 06:13:04;;;;;;;31.33;14.63;;;;;;;-1.07;79.16;98688.58;259121;1108;23017;-76
2021/03/19 06:18:40;;;;;;;32.07;15.70;;;;;;;-1.11;79.40;98687.39;259059;1109;23110;-76
2021/03/19 06:24:04;;;;;;;33.50;16.40;;;;;;;-0.89;79.74;98687.83;259245;1109;23154;-76
2021/03/19 06:29:26;;;;;;;31.20;15.83;;;;;;;-0.89;78.84;98693.08;259036;1108;26473;-77
2021/03/19 06:34:28;;;;;;;29.83;13.73;;;;;;;-0.84;78.88;98685.33;259047;1108;23247;-77
2021/03/19 06:39:46;;;;;;;29.53;14.43;;;;;;;-0.68;78.48;98691.09;259059;1108;23027;-78
2021/03/19 06:45:19;;;;;;;33.87;17.10;;;;;;;-0.56;78.38;98694.59;259241;1109;23024;-76
2021/03/19 06:50:22;;;;;;;35.83;17.57;;;;;;;-0.27;78.59;98692.28;259101;1109;23074;-77
2021/03/19 06:55:41;;;;;;;37.23;17.03;;;;;;;0.04;79.33;98696.56;259412;1109;23036;-76
2021/03/19 07:00:47;;;;;;;39.87;19.33;;;;;;;0.33;78.27;98710.00;259835;1108;23187;-76
2021/03/19 07:06:17;;;;;;;36.50;19.20;;;;;;;0.55;77.53;98707.69;259705;1108;26415;-77
2021/03/19 07:11:27;;;;;;;39.87;18.40;;;;;;;0.71;76.90;98711.50;259996;1108;23087;-76
2021/03/19 07:16:54;;;;;;;50.15;22.02;;;;;;;0.83;76.70;98712.34;259739;1108;23449;-74
2021/03/19 07:22:15;;;;;;;30.37;15.83;;;;;;;0.90;76.66;98716.73;259766;1108;23053;-74
2021/03/19 07:27:34;;;;;;;26.70;14.25;;;;;;;0.96;76.83;98723.72;259499;1106;23074;-75
2021/03/19 07:33:02;;;;;;;34.23;16.23;;;;;;;1.04;75.77;98719.97;259089;1108;23076;-74
2021/03/19 07:38:14;;;;;;;37.23;16.97;;;;;;;1.13;75.96;98723.86;259603;1108;23590;-73
2021/03/19 07:43:51;;;;;;;45.73;21.40;;;;;;;1.26;76.14;98725.47;259415;1107;26039;-74
2021/03/19 07:49:32;;;;;;;35.15;17.80;;;;;;;1.47;75.27;98724.92;259730;1109;23090;-74
2021/03/19 07:54:44;;;;;;;44.45;21.02;;;;;;;1.32;73.78;98732.50;259143;1109;26884;-75
2021/03/19 08:00:05;;;;;;;37.83;18.77;;;;;;;1.41;74.65;98730.31;259358;1108;26417;-76
2021/03/19 08:05:14;;;;;;;38.50;18.47;;;;;;;1.40;74.19;98736.62;259504;1108;22970;-74
2021/03/19 08:10:21;;;;;;;41.67;19.10;;;;;;;1.31;74.42;98736.16;259673;1109;23518;-75
2021/03/19 08:15:29;;;;;;;37.57;18.83;;;;;;;1.62;75.40;98739.49;259947;1107;26067;-73
2021/03/19 08:20:43;;;;;;;35.55;19.05;;;;;;;2.01;74.98;98735.30;259865;1108;23437;-74
2021/03/19 08:25:49;;;;;;;37.93;18.50;;;;;;;2.42;74.86;98739.80;259777;1108;23154;-74
2021/03/19 08:31:13;;;;;;;39.50;20.43;;;;;;;2.34;72.96;98743.63;259945;1109;28388;-75
2021/03/19 08:36:40;;;;;;;38.73;20.37;;;;;;;2.26;73.22;98744.00;259775;1109;23083;-74
2021/03/19 08:41:48;;;;;;;42.40;21.15;;;;;;;2.40;73.59;98734.74;259713;1108;23494;-75
2021/03/19 08:46:57;;;;;;;39.47;20.03;;;;;;;2.50;72.13;98731.48;260336;1109;23065;-75
2021/03/19 08:52:30;;;;;;;37.50;19.85;;;;;;;2.48;71.96;98731.73;259346;1109;26266;-75
2021/03/19 08:57:35;;;;;;;33.93;19.27;;;;;;;2.56;72.48;98733.17;259797;1108;23077;-75
2021/03/19 09:02:53;;;;;;;33.00;20.13;;;;;;;2.78;72.26;98735.16;259743;1108;23020;-74
2021/03/19 09:08:23;;;;;;;34.97;19.77;;;;;;;2.83;71.89;98743.20;260709;1108;22998;-73
2021/03/19 09:13:26;;;;;;;33.95;18.35;;;;;;;2.80;71.36;98747.12;260167;1108;23030;-73
2021/03/19 09:18:46;;;;;;;34.53;17.87;;;;;;;2.83;71.50;98736.05;259866;1108;23036;-72
2021/03/19 09:23:57;;;;;;;35.38;18.48;;;;;;;3.08;71.46;98732.23;259747;1108;23080;-74
2021/03/19 09:29:25;;;;;;;27.53;17.33;;;;;;;3.33;70.71;98738.95;259823;1108;22995;-74
2021/03/19 09:34:42;;;;;;;31.13;17.33;;;;;;;3.24;69.99;98731.41;262760;1108;23126;-74
2021/03/19 09:39:56;;;;;;;29.17;16.10;;;;;;;3.37;69.70;98718.89;259591;1108;23086;-73
2021/03/19 09:44:58;;;;;;;29.47;17.40;;;;;;;3.44;69.42;98727.47;259800;1108;23029;-73
2021/03/19 09:50:13;;;;;;;28.83;16.00;;;;;;;3.54;69.05;98724.17;260034;1108;23005;-73
2021/03/19 09:55:18;;;;;;;29.27;17.20;;;;;;;3.71;68.49;98713.56;259964;1108;23034;-73
2021/03/19 10:00:26;;;;;;;23.73;15.23;;;;;;;3.62;68.59;98720.31;260479;1108;23086;-74
2021/03/19 10:05:38;;;;;;;22.73;14.83;;;;;;;3.74;68.44;98713.08;259568;1108;23267;-74
2021/03/19 10:10:42;;;;;;;23.98;14.80;;;;;;;4.01;67.47;98715.78;259590;1109;23030;-75
2021/03/19 10:15:48;;;;;;;22.30;14.70;;;;;;;4.31;67.38;98719.05;259633;1109;29015;-74
2021/03/19 10:20:56;;;;;;;19.63;12.97;;;;;;;4.49;65.87;98716.08;259494;1109;23026;-73
2021/03/19 10:26:37;;;;;;;18.93;12.00;;;;;;;4.61;66.22;98716.71;259500;1109;23148;-73
2021/03/19 10:31:49;;;;;;;19.65;11.40;;;;;;;4.67;63.81;98711.47;259706;1108;23073;-73
2021/03/19 10:37:19;;;;;;;13.77;8.97;;;;;;;4.74;63.34;98720.84;259355;1108;23023;-74
2021/03/19 10:42:31;;;;;;;11.37;7.73;;;;;;;4.80;62.06;98719.03;260290;1109;23041;-75
2021/03/19 10:47:58;;;;;;;14.53;7.73;;;;;;;4.83;61.19;98705.25;260399;1108;23023;-74
2021/03/19 10:53:17;;;;;;;15.30;8.40;;;;;;;4.79;61.35;98706.81;259819;1108;23063;-76
2021/03/19 10:58:22;;;;;;;11.10;8.13;;;;;;;4.95;60.60;98713.86;259754;1109;23056;-74
2021/03/19 11:03:45;;;;;;;11.40;8.07;;;;;;;5.14;60.57;98708.16;259641;1107;26152;-75
2021/03/19 11:09:05;;;;;;;12.65;8.30;;;;;;;5.13;58.43;98710.02;260009;1107;23052;-75
2021/03/19 11:14:10;;;;;;;11.33;7.40;;;;;;;4.93;58.03;98705.33;260387;1108;26182;-75
2021/03/19 11:19:19;;;;;;;8.75;5.55;;;;;;;4.42;57.91;98718.11;259811;1107;26481;-74
2021/03/19 11:24:27;;;;;;;8.47;5.60;;;;;;;3.82;58.29;98725.08;259632;1108;24055;-75
2021/03/19 11:29:34;;;;;;;8.87;6.00;;;;;;;3.21;59.92;98718.66;259632;1108;23051;-75
2021/03/19 11:34:49;;;;;;;10.67;6.27;;;;;;;2.91;62.04;98724.29;260194;1108;23040;-75
2021/03/19 11:39:56;;;;;;;10.10;6.80;;;;;;;3.03;63.00;98713.62;260551;1108;26289;-75
2021/03/19 11:45:09;;;;;;;10.73;7.57;;;;;;;3.23;63.44;98707.83;259835;1108;23180;-75
2021/03/19 11:50:20;;;;;;;13.40;8.20;;;;;;;3.36;63.46;98717.31;259528;1109;23026;-74
2021/03/19 11:55:35;;;;;;;11.80;7.40;;;;;;;3.70;64.63;98710.09;259590;1109;23023;-75
2021/03/19 12:00:40;;;;;;;9.30;6.20;;;;;;;4.24;62.90;98728.00;259704;1108;26443;-75
2021/03/19 12:05:42;;;;;;;10.17;7.07;;;;;;;4.02;61.24;98730.65;260245;1108;27680;-76
2021/03/19 12:10:44;;;;;;;8.53;6.47;;;;;;;3.68;61.30;98721.98;259992;1107;23202;-76
2021/03/19 12:15:49;;;;;;;11.07;6.40;;;;;;;3.55;61.90;98721.30;259834;1108;26473;-75
2021/03/19 12:20:54;;;;;;;11.07;6.60;;;;;;;3.74;60.98;98713.86;260486;1109;22995;-76
2021/03/19 12:25:57;;;;;;;8.83;6.30;;;;;;;4.04;61.60;98717.15;260335;1108;23324;-75
2021/03/19 12:30:59;;;;;;;11.63;7.23;;;;;;;4.47;61.22;98707.56;260254;1108;23077;-76
2021/03/19 12:36:03;;;;;;;10.77;6.77;;;;;;;4.68;59.79;98707.77;259930;1108;25953;-75
2021/03/19 12:41:06;;;;;;;8.27;6.30;;;;;;;4.72;59.03;98704.35;259857;1108;23003;-76
2021/03/19 12:46:08;;;;;;;10.17;6.60;;;;;;;4.63;57.79;98709.32;260631;1108;23083;-76
2021/03/19 12:51:10;;;;;;;10.13;6.57;;;;;;;4.47;57.57;98699.59;260375;1109;23030;-76
2021/03/19 12:56:13;;;;;;;13.50;7.00;;;;;;;4.30;56.25;98704.20;260307;1108;23609;-76
2021/03/19 13:01:19;;;;;;;9.57;6.30;;;;;;;4.08;56.28;98691.75;260105;1108;29198;-74
2021/03/19 13:06:23;;;;;;;11.67;7.13;;;;;;;3.99;56.45;98688.73;262654;1109;23264;-74
2021/03/19 13:11:25;;;;;;;10.90;5.57;;;;;;;3.88;55.58;98687.80;260893;1108;26404;-75
2021/03/19 13:16:27;;;;;;;8.75;5.30;;;;;;;3.78;54.82;98692.98;259750;1109;23219;-74
2021/03/19 13:21:31;;;;;;;9.93;5.03;;;;;;;3.93;53.90;98685.23;259985;1108;23053;-74
2021/03/19 13:26:33;;;;;;;7.03;4.73;;;;;;;4.31;54.29;98681.92;265682;1107;23012;-75
2021/03/19 13:31:35;;;;;;;8.23;4.77;;;;;;;4.74;53.70;98682.87;265331;1108;22794;-73
2021/03/19 13:36:39;;;;;;;6.73;4.37;;;;;;;5.21;52.82;98684.84;265494;1108;22887;-74
2021/03/19 13:41:42;;;;;;;5.73;4.20;;;;;;;5.43;50.22;98670.65;261176;1107;23000;-74
2021/03/19 13:46:45;;;;;;;5.10;3.33;;;;;;;5.38;49.38;98673.27;260021;1108;23532;-75
2021/03/19 13:51:47;;;;;;;6.50;3.55;;;;;;;5.37;48.85;98679.62;260399;1108;23189;-75
2021/03/19 13:56:57;;;;;;;3.87;3.10;;;;;;;5.08;48.04;98682.63;260217;1108;26437;-76
2021/03/19 14:01:59;;;;;;;5.37;3.40;;;;;;;4.74;47.66;98682.87;260510;1108;23080;-74
2021/03/19 14:07:02;;;;;;;5.20;3.37;;;;;;;4.32;49.08;98686.97;261964;1108;22985;-74
2021/03/19 14:12:07;;;;;;;7.23;3.27;;;;;;;3.99;49.36;98686.09;260042;1108;23073;-74
2021/03/19 14:17:09;;;;;;;5.00;3.07;;;;;;;3.76;49.48;98681.82;260001;1108;23232;-75
2021/03/19 14:22:12;;;;;;;7.27;4.47;;;;;;;3.77;50.29;98670.97;259838;1108;23033;-74
2021/03/19 14:27:14;;;;;;;6.80;4.40;;;;;;;3.92;50.27;98675.67;261516;1108;23020;-75
2021/03/19 14:32:18;;;;;;;5.07;3.57;;;;;;;4.11;49.49;98668.20;259905;1108;23070;-76
2021/03/19 14:37:20;;;;;;;6.97;3.80;;;;;;;4.25;49.47;98665.97;260272;1108;22973;-76
2021/03/19 14:42:23;;;;;;;6.83;3.77;;;;;;;4.39;48.99;98670.87;259573;1107;22998;-76
2021/03/19 14:47:25;;;;;;;7.17;4.47;;;;;;;4.38;50.28;98672.73;259395;1108;23418;-76
2021/03/19 14:52:27;;;;;;;6.37;4.63;;;;;;;4.33;49.73;98677.97;259468;1108;23024;-74
2021/03/19 14:57:30;;;;;;;10.27;4.23;;;;;;;4.11;50.42;98680.64;259425;1107;23180;-74
2021/03/19 15:02:32;;;;;;;7.20;4.65;;;;;;;3.80;50.22;98674.19;259561;1108;23073;-75
2021/03/19 15:07:35;;;;;;;6.20;4.17;;;;;;;3.42;50.73;98674.75;263120;1107;24021;-75
2021/03/19 15:12:37;;;;;;;7.80;3.65;;;;;;;3.22;51.60;98685.86;259178;1109;23022;-78
2021/03/19 15:17:40;;;;;;;5.75;3.90;;;;;;;3.02;51.51;98682.89;258992;1107;22974;-74
2021/03/19 15:22:42;;;;;;;6.93;4.53;;;;;;;2.86;51.93;98687.16;259014;1109;26030;-74
2021/03/19 15:27:46;;;;;;;8.43;4.40;;;;;;;2.70;52.24;98686.08;259095;1108;23077;-74
2021/03/19 15:32:48;;;;;;;6.17;3.70;;;;;;;2.63;52.40;98688.89;259486;1108;23075;-75
2021/03/19 15:37:53;;;;;;;6.20;3.40;;;;;;;2.51;52.46;98690.79;259142;1109;26634;-75
2021/03/19 15:42:55;;;;;;;5.90;3.23;;;;;;;2.38;52.77;98690.03;259172;1108;23021;-75
2021/03/19 15:47:58;;;;;;;7.95;3.85;;;;;;;2.26;53.37;98693.77;259308;1108;23427;-74
2021/03/19 15:53:00;;;;;;;8.70;4.70;;;;;;;2.11;53.85;98694.27;258967;1108;23013;-74
2021/03/19 15:58:04;;;;;;;6.17;3.33;;;;;;;2.03;53.78;98703.38;259670;1107;23070;-75
2021/03/19 16:03:06;;;;;;;9.90;3.90;;;;;;;1.99;54.73;98702.24;259283;1108;23611;-75
2021/03/19 16:08:13;;;;;;;11.33;4.63;;;;;;;1.96;54.37;98713.25;259140;1108;23088;-75
2021/03/19 16:13:16;;;;;;;7.93;2.83;;;;;;;1.94;55.62;98723.27;259214;1108;23077;-76
2021/03/19 16:18:25;;;;;;;6.50;4.27;;;;;;;1.93;55.36;98726.94;259196;1109;23094;-76
2021/03/19 16:23:27;;;;;;;8.80;5.07;;;;;;;1.93;56.72;98726.94;259077;1108;26447;-74
2021/03/19 16:28:29;;;;;;;9.07;5.33;;;;;;;1.92;56.32;98730.61;259043;1108;23087;-74
2021/03/19 16:33:32;;;;;;;9.80;4.87;;;;;;;1.87;56.43;98726.85;258948;1109;23207;-74
2021/03/19 16:38:38;;;;;;;8.00;5.00;;;;;;;1.81;56.52;98742.81;259176;1108;23057;-74
2021/03/19 16:43:44;;;;;;;9.30;4.25;;;;;;;1.73;56.87;98738.67;259181;1108;23553;-74
2021/03/19 16:48:47;;;;;;;6.73;4.30;;;;;;;1.68;56.54;98746.52;259102;1108;23077;-75
2021/03/19 16:53:49;;;;;;;11.17;5.20;;;;;;;1.57;57.93;98742.83;258906;1108;24071;-74
2021/03/19 16:58:51;;;;;;;8.27;4.40;;;;;;;1.46;57.48;98746.28;259046;1107;23091;-74
2021/03/19 17:03:54;;;;;;;9.57;4.93;;;;;;;1.36;57.72;98752.92;259180;1109;23229;-74
2021/03/19 17:08:57;;;;;;;10.27;4.93;;;;;;;1.25;57.97;98747.64;259106;1109;28138;-75
2021/03/19 17:14:00;;;;;;;10.13;5.40;;;;;;;1.17;57.66;98757.47;259016;1109;23202;-74
2021/03/19 17:19:02;;;;;;;9.87;5.33;;;;;;;1.10;57.58;98754.14;258988;1108;23018;-74
2021/03/19 17:24:04;;;;;;;8.20;5.03;;;;;;;1.04;58.05;98762.97;259036;1108;23222;-74
2021/03/19 17:29:06;;;;;;;12.07;6.17;;;;;;;0.99;57.26;98768.11;258876;1109;23097;-75
2021/03/19 17:34:09;;;;;;;13.10;6.47;;;;;;;0.93;57.32;98769.81;258978;1109;23198;-75
2021/03/19 17:39:12;;;;;;;15.90;7.67;;;;;;;0.84;57.53;98771.98;259080;1108;23077;-74
2021/03/19 17:44:14;;;;;;;12.33;6.50;;;;;;;0.74;58.23;98779.63;259174;1108;23094;-74
2021/03/19 17:49:17;;;;;;;12.33;6.33;;;;;;;0.62;59.15;98784.05;259059;1108;23017;-74
2021/03/19 17:54:19;;;;;;;14.00;6.60;;;;;;;0.46;59.88;98791.55;259123;1109;23087;-74
2021/03/19 17:59:21;;;;;;;15.03;7.17;;;;;;;0.31;60.71;98789.28;259105;1108;23061;-74
2021/03/19 18:04:25;;;;;;;13.85;7.00;;;;;;;0.18;61.40;98793.89;259137;1108;22984;-75
2021/03/19 18:09:33;;;;;;;14.13;7.73;;;;;;;0.06;62.16;98793.83;259061;1108;23021;-76
2021/03/19 18:14:35;;;;;;;13.80;6.67;;;;;;;-0.01;62.26;98796.53;259080;1107;23229;-74
2021/03/19 18:19:39;;;;;;;15.00;7.53;;;;;;;-0.05;63.30;98792.72;259208;1107;23073;-75
2021/03/19 18:24:42;;;;;;;15.23;7.33;;;;;;;-0.04;62.96;98796.97;258835;1108;23557;-74
2021/03/19 18:29:44;;;;;;;40.57;14.27;;;;;;;-0.01;63.52;98807.86;259064;1109;23229;-74
2021/03/19 18:34:46;;;;;;;42.60;14.87;;;;;;;0.04;63.79;98811.67;258986;1108;23021;-75
2021/03/19 18:39:49;;;;;;;40.47;13.67;;;;;;;0.07;64.07;98816.50;259113;1108;23224;-74
2021/03/19 18:44:52;;;;;;;25.17;11.00;;;;;;;0.09;64.57;98815.26;259256;1109;23072;-74
2021/03/19 18:49:54;;;;;;;19.45;9.85;;;;;;;0.07;65.31;98827.03;259212;1108;23183;-75
2021/03/19 18:54:56;;;;;;;18.37;9.13;;;;;;;0.05;66.33;98827.25;259103;1108;23014;-75
2021/03/19 18:59:58;;;;;;;18.73;9.20;;;;;;;-0.01;66.57;98839.47;259244;1108;26557;-75
2021/03/19 19:05:02;;;;;;;17.07;8.50;;;;;;;-0.10;67.35;98824.98;258945;1109;23125;-74
2021/03/19 19:10:09;;;;;;;12.95;7.45;;;;;;;-0.23;68.25;98840.89;259070;1109;23596;-75
2021/03/19 19:15:13;;;;;;;11.13;6.33;;;;;;;-0.38;68.57;98839.41;259123;1109;24438;-74
2021/03/19 19:20:30;;;;;;;9.97;5.80;;;;;;;-0.49;69.41;98845.36;259188;1109;23002;-75
2021/03/19 19:25:34;;;;;;;9.97;5.57;;;;;;;-0.60;70.16;98852.12;259225;1107;23033;-75
2021/03/19 19:30:38;;;;;;;9.80;6.50;;;;;;;-0.66;70.30;98860.05;259145;1109;26191;-73
2021/03/19 19:35:40;;;;;;;8.73;6.23;;;;;;;-0.72;70.79;98864.34;259056;1109;23034;-74
2021/03/19 19:40:47;;;;;;;14.03;8.70;;;;;;;-0.75;71.40;98862.14;258899;1109;23255;-74
2021/03/19 19:46:00;;;;;;;16.27;9.17;;;;;;;-0.78;72.45;98873.09;259057;1109;23090;-74
2021/03/19 19:51:05;;;;;;;11.45;7.45;;;;;;;-0.79;72.53;98876.73;259151;1109;23097;-74
2021/03/19 19:56:09;;;;;;;17.67;9.67;;;;;;;-0.81;73.18;98879.58;259105;1107;24806;-73
2021/03/19 20:01:12;;;;;;;13.90;8.83;;;;;;;-0.80;72.99;98878.53;259208;1109;23145;-74
2021/03/19 20:06:17;;;;;;;18.00;10.50;;;;;;;-0.78;73.73;98883.61;258760;1107;26071;-74
2021/03/19 20:11:22;;;;;;;17.03;9.97;;;;;;;-0.68;74.12;98893.67;259394;1108;23160;-74
2021/03/19 20:16:26;;;;;;;18.80;11.65;;;;;;;-0.57;73.93;98895.63;259142;1109;23225;-75
2021/03/19 20:21:32;;;;;;;15.77;9.30;;;;;;;-0.47;73.50;98895.16;259204;1109;23097;-74
2021/03/19 20:26:35;;;;;;;25.90;13.33;;;;;;;-0.37;73.30;98898.91;259192;1108;24619;-75
2021/03/19 20:31:42;;;;;;;20.50;11.90;;;;;;;-0.27;74.01;98903.69;259185;1108;27409;-74
2021/03/19 20:36:48;;;;;;;22.47;12.17;;;;;;;-0.22;73.92;98903.86;259154;1108;23021;-75
2021/03/19 20:41:54;;;;;;;16.05;9.80;;;;;;;-0.19;73.32;98910.53;258824;1108;23185;-75
2021/03/19 20:46:56;;;;;;;16.90;9.77;;;;;;;-0.17;73.50;98916.38;259118;1109;22977;-74
2021/03/19 20:51:58;;;;;;;14.40;8.75;;;;;;;-0.17;74.17;98916.38;258996;1109;27354;-75
2021/03/19 20:57:03;;;;;;;10.10;6.83;;;;;;;-0.24;74.27;98926.98;259235;1107;23140;-75
2021/03/19 21:02:14;;;;;;;15.10;7.27;;;;;;;-0.33;73.19;98930.89;259161;1108;23068;-75
2021/03/19 21:07:21;;;;;;;13.60;6.57;;;;;;;-0.40;73.14;98928.29;259146;1109;23199;-74
2021/03/19 21:12:28;;;;;;;11.53;7.23;;;;;;;-0.46;73.12;98931.78;259049;1107;23070;-74
2021/03/19 21:17:32;;;;;;;8.57;6.53;;;;;;;-0.52;73.15;98943.14;259202;1109;23164;-75
2021/03/19 21:22:35;;;;;;;12.03;7.73;;;;;;;-0.60;72.87;98932.86;259233;1108;26613;-75
2021/03/19 21:27:39;;;;;;;11.70;6.87;;;;;;;-0.67;73.26;98945.25;259296;1107;23064;-75
2021/03/19 21:32:42;;;;;;;14.00;7.83;;;;;;;-0.80;73.61;98948.77;259304;1108;23020;-73
2021/03/19 21:37:45;;;;;;;15.17;8.27;;;;;;;-0.88;74.54;98950.63;259099;1108;23276;-75
2021/03/19 21:42:51;;;;;;;12.60;7.50;;;;;;;-0.92;74.01;98956.52;259009;1109;22989;-74
2021/03/19 21:47:54;;;;;;;11.63;6.37;;;;;;;-0.97;74.82;98957.13;259184;1108;23020;-74
2021/03/19 21:52:56;;;;;;;11.40;7.33;;;;;;;-0.99;73.88;98966.23;259175;1108;23026;-73
2021/03/19 21:57:59;;;;;;;12.93;6.30;;;;;;;-1.03;73.67;98973.74;259028;1108;23184;-72
2021/03/19 22:03:04;;;;;;;11.30;6.63;;;;;;;-1.07;74.12;98977.80;259234;1108;23186;-74
2021/03/19 22:08:07;;;;;;;10.00;6.37;;;;;;;-1.06;73.95;98984.69;258970;1108;23079;-75
2021/03/19 22:13:09;;;;;;;9.97;5.53;;;;;;;-1.07;74.14;98980.43;258994;1108;23154;-74
2021/03/19 22:18:12;;;;;;;10.30;6.50;;;;;;;-1.10;74.08;98986.11;259161;1108;23169;-75
2021/03/19 22:23:14;;;;;;;10.47;6.40;;;;;;;-1.15;73.55;98996.43;259007;1108;29101;-74
2021/03/19 22:28:17;;;;;;;10.33;6.13;;;;;;;-1.22;74.24;99004.33;259021;1109;23087;-74
2021/03/19 22:33:20;;;;;;;9.47;5.80;;;;;;;-1.26;73.94;99014.45;259106;1108;23020;-74
2021/03/19 22:38:24;;;;;;;8.70;5.30;;;;;;;-1.34;73.76;99017.30;258992;1108;23086;-74
2021/03/19 22:43:29;;;;;;;9.83;5.93;;;;;;;-1.41;74.35;99011.25;259063;1109;23235;-75
2021/03/19 22:48:31;;;;;;;9.67;5.20;;;;;;;-1.48;74.06;99011.25;259201;1108;23090;-74
2021/03/19 22:53:35;;;;;;;8.93;5.13;;;;;;;-1.58;74.74;99016.09;258993;1108;23017;-73
2021/03/19 22:58:47;;;;;;;8.00;4.67;;;;;;;-1.67;74.87;99033.88;259089;1108;23074;-74
2021/03/19 23:03:49;;;;;;;9.63;4.70;;;;;;;-1.78;74.87;99030.03;258881;1109;23087;-73
2021/03/19 23:08:52;;;;;;;10.60;4.97;;;;;;;-1.84;74.80;99028.22;259134;1109;23013;-74
2021/03/19 23:13:57;;;;;;;12.17;5.67;;;;;;;-1.91;74.63;99035.29;259304;1108;23015;-73
2021/03/19 23:19:00;;;;;;;9.50;5.70;;;;;;;-1.95;74.95;99048.00;258974;1108;23015;-74
2021/03/19 23:24:04;;;;;;;9.43;5.30;;;;;;;-2.01;74.76;99050.64;259134;1107;23228;-74
2021/03/19 23:29:09;;;;;;;10.97;6.07;;;;;;;-2.06;75.23;99048.59;259383;1107;23226;-74
2021/03/19 23:34:14;;;;;;;7.50;4.80;;;;;;;-2.10;74.50;99044.73;259117;1108;23229;-73
2021/03/19 23:39:17;;;;;;;8.15;4.90;;;;;;;-2.12;75.35;99046.77;259023;1108;23233;-74